sensor_id;sensor_type;location;lat;lon;timestamp;pressure;altitude;pressure_sealevel;temperature;humidity
74722;BME280;63470;49.826;6.740;2023-09-19T00:00:32;99709.50;;;16.69;60.00
74722;BME280;63470;49.826;6.740;2023-09-19T00:03:05;99707.58;;;16.62;60.06
74722;BME280;63470;49.826;6.740;2023-09-19T00:05:36;99707.53;;;16.55;60.11
74722;BME280;63470;49.826;6.740;2023-09-19T00:08:05;99711.61;;;16.48;60.20
74722;BME280;63470;49.826;6.740;2023-09-19T00:10:35;99712.19;;;16.41;60.26
74722;BME280;63470;49.826;6.740;2023-09-19T00:13:09;99719.83;;;16.31;60.39
74722;BME280;63470;49.826;6.740;2023-09-19T00:15:38;99722.13;;;16.24;60.49
74722;BME280;63470;49.826;6.740;2023-09-19T00:18:07;99728.08;;;16.20;60.52
74722;BME280;63470;49.826;6.740;2023-09-19T00:20:36;99732.48;;;16.17;60.48
74722;BME280;63470;49.826;6.740;2023-09-19T00:23:12;99737.41;;;16.15;60.51
74722;BME280;63470;49.826;6.740;2023-09-19T00:25:37;99738.97;;;16.17;60.55
74722;BME280;63470;49.826;6.740;2023-09-19T00:28:11;99741.18;;;16.22;60.51
74722;BME280;63470;49.826;6.740;2023-09-19T00:30:42;99738.02;;;16.25;60.41
74722;BME280;63470;49.826;6.740;2023-09-19T00:33:08;99739.33;;;16.24;60.37
74722;BME280;63470;49.826;6.740;2023-09-19T00:35:39;99737.87;;;16.21;60.38
74722;BME280;63470;49.826;6.740;2023-09-19T00:38:12;99736.88;;;16.18;60.38
74722;BME280;63470;49.826;6.740;2023-09-19T00:40:43;99732.25;;;16.11;60.44
74722;BME280;63470;49.826;6.740;2023-09-19T00:43:10;99736.11;;;16.06;60.53
74722;BME280;63470;49.826;6.740;2023-09-19T00:45:45;99743.05;;;16.00;60.58
74722;BME280;63470;49.826;6.740;2023-09-19T00:48:12;99747.89;;;15.99;60.51
74722;BME280;63470;49.826;6.740;2023-09-19T00:50:43;99743.71;;;16.01;60.38
74722;BME280;63470;49.826;6.740;2023-09-19T00:53:17;99747.38;;;16.01;60.32
74722;BME280;63470;49.826;6.740;2023-09-19T00:55:46;99748.72;;;16.01;60.32
74722;BME280;63470;49.826;6.740;2023-09-19T00:58:16;99754.97;;;16.01;60.29
74722;BME280;63470;49.826;6.740;2023-09-19T01:00:46;99753.67;;;15.98;60.34
74722;BME280;63470;49.826;6.740;2023-09-19T01:03:15;99758.89;;;15.97;60.38
74722;BME280;63470;49.826;6.740;2023-09-19T01:05:46;99764.64;;;15.96;60.34
74722;BME280;63470;49.826;6.740;2023-09-19T01:08:19;99759.55;;;15.95;60.34
74722;BME280;63470;49.826;6.740;2023-09-19T01:11:03;99761.92;;;15.92;60.36
74722;BME280;63470;49.826;6.740;2023-09-19T01:13:26;99765.51;;;15.88;60.39
74722;BME280;63470;49.826;6.740;2023-09-19T01:16:08;99766.91;;;15.87;60.40
74722;BME280;63470;49.826;6.740;2023-09-19T01:18:51;99768.66;;;15.85;60.39
74722;BME280;63470;49.826;6.740;2023-09-19T01:23:46;99774.60;;;15.82;60.41
74722;BME280;63470;49.826;6.740;2023-09-19T01:26:11;99782.74;;;15.83;60.41
74722;BME280;63470;49.826;6.740;2023-09-19T01:28:45;99790.91;;;15.82;60.41
74722;BME280;63470;49.826;6.740;2023-09-19T01:30:56;99788.52;;;15.80;60.42
74722;BME280;63470;49.826;6.740;2023-09-19T01:33:21;99798.23;;;15.79;60.47
74722;BME280;63470;49.826;6.740;2023-09-19T01:35:51;99795.08;;;15.78;60.46
74722;BME280;63470;49.826;6.740;2023-09-19T01:38:25;99796.01;;;15.78;60.48
74722;BME280;63470;49.826;6.740;2023-09-19T01:41:04;99796.27;;;15.78;60.47
74722;BME280;63470;49.826;6.740;2023-09-19T01:43:31;99792.67;;;15.78;60.42
74722;BME280;63470;49.826;6.740;2023-09-19T01:45:59;99793.33;;;15.79;60.38
74722;BME280;63470;49.826;6.740;2023-09-19T01:48:49;99797.23;;;15.79;60.34
74722;BME280;63470;49.826;6.740;2023-09-19T01:51:06;99799.24;;;15.77;60.38
74722;BME280;63470;49.826;6.740;2023-09-19T01:53:50;99800.53;;;15.74;60.42
74722;BME280;63470;49.826;6.740;2023-09-19T01:55:56;99798.59;;;15.73;60.43
74722;BME280;63470;49.826;6.740;2023-09-19T01:58:38;99797.42;;;15.71;60.41
74722;BME280;63470;49.826;6.740;2023-09-19T02:00:58;99802.94;;;15.68;60.41
74722;BME280;63470;49.826;6.740;2023-09-19T02:03:26;99803.12;;;15.64;60.46
74722;BME280;63470;49.826;6.740;2023-09-19T02:05:59;99806.45;;;15.62;60.53
74722;BME280;63470;49.826;6.740;2023-09-19T02:08:27;99806.28;;;15.66;60.51
74722;BME280;63470;49.826;6.740;2023-09-19T02:10:58;99806.59;;;15.70;60.49
74722;BME280;63470;49.826;6.740;2023-09-19T02:13:29;99813.05;;;15.73;60.52
74722;BME280;63470;49.826;6.740;2023-09-19T02:15:59;99814.20;;;15.81;60.46
74722;BME280;63470;49.826;6.740;2023-09-19T02:18:29;99815.34;;;15.90;60.33
74722;BME280;63470;49.826;6.740;2023-09-19T02:20:59;99815.58;;;16.00;60.23
74722;BME280;63470;49.826;6.740;2023-09-19T02:23:30;99815.76;;;16.08;60.17
74722;BME280;63470;49.826;6.740;2023-09-19T02:26:01;99818.48;;;16.12;60.12
74722;BME280;63470;49.826;6.740;2023-09-19T02:28:35;99827.81;;;16.17;60.06
74722;BME280;63470;49.826;6.740;2023-09-19T02:31:02;99822.73;;;16.20;60.01
74722;BME280;63470;49.826;6.740;2023-09-19T02:33:33;99825.60;;;16.23;59.97
74722;BME280;63470;49.826;6.740;2023-09-19T02:36:06;99829.58;;;16.26;59.94
74722;BME280;63470;49.826;6.740;2023-09-19T02:38:35;99831.11;;;16.26;59.92
74722;BME280;63470;49.826;6.740;2023-09-19T02:41:05;99828.85;;;16.27;59.92
74722;BME280;63470;49.826;6.740;2023-09-19T02:43:39;99828.94;;;16.23;59.95
74722;BME280;63470;49.826;6.740;2023-09-19T02:46:06;99833.53;;;16.17;60.03
74722;BME280;63470;49.826;6.740;2023-09-19T02:48:37;99830.81;;;16.10;60.12
74722;BME280;63470;49.826;6.740;2023-09-19T02:51:07;99841.69;;;16.02;60.17
74722;BME280;63470;49.826;6.740;2023-09-19T02:53:41;99846.17;;;15.98;60.17
74722;BME280;63470;49.826;6.740;2023-09-19T02:56:10;99841.31;;;15.96;60.17
74722;BME280;63470;49.826;6.740;2023-09-19T02:58:39;99845.12;;;15.94;60.17
74722;BME280;63470;49.826;6.740;2023-09-19T03:01:10;99846.64;;;15.96;60.19
74722;BME280;63470;49.826;6.740;2023-09-19T03:03:43;99842.02;;;16.01;60.12
74722;BME280;63470;49.826;6.740;2023-09-19T03:06:10;99847.09;;;16.06;60.05
74722;BME280;63470;49.826;6.740;2023-09-19T03:08:43;99851.45;;;16.10;59.95
74722;BME280;63470;49.826;6.740;2023-09-19T03:11:13;99854.70;;;16.10;59.93
74722;BME280;63470;49.826;6.740;2023-09-19T03:13:43;99852.30;;;16.06;59.97
74722;BME280;63470;49.826;6.740;2023-09-19T03:16:11;99856.23;;;16.00;60.04
74722;BME280;63470;49.826;6.740;2023-09-19T03:18:42;99857.29;;;15.94;60.09
74722;BME280;63470;49.826;6.740;2023-09-19T03:21:12;99860.02;;;15.89;60.15
74722;BME280;63470;49.826;6.740;2023-09-19T03:23:47;99858.03;;;15.85;60.22
74722;BME280;63470;49.826;6.740;2023-09-19T03:26:17;99850.56;;;15.81;60.25
74722;BME280;63470;49.826;6.740;2023-09-19T03:28:44;99853.42;;;15.78;60.25
74722;BME280;63470;49.826;6.740;2023-09-19T03:31:13;99855.14;;;15.73;60.29
74722;BME280;63470;49.826;6.740;2023-09-19T03:33:44;99857.81;;;15.71;60.34
74722;BME280;63470;49.826;6.740;2023-09-19T03:36:14;99852.82;;;15.67;60.35
74722;BME280;63470;49.826;6.740;2023-09-19T03:38:45;99854.35;;;15.62;60.39
74722;BME280;63470;49.826;6.740;2023-09-19T03:41:18;99853.78;;;15.56;60.49
74722;BME280;63470;49.826;6.740;2023-09-19T03:43:46;99854.45;;;15.50;60.53
74722;BME280;63470;49.826;6.740;2023-09-19T03:46:17;99854.14;;;15.44;60.62
74722;BME280;63470;49.826;6.740;2023-09-19T03:48:47;99848.70;;;15.36;60.70
74722;BME280;63470;49.826;6.740;2023-09-19T03:51:18;99845.44;;;15.31;60.74
74722;BME280;63470;49.826;6.740;2023-09-19T03:53:50;99844.45;;;15.26;60.76
74722;BME280;63470;49.826;6.740;2023-09-19T03:56:19;99846.55;;;15.24;60.75
74722;BME280;63470;49.826;6.740;2023-09-19T03:58:51;99852.17;;;15.21;60.74
74722;BME280;63470;49.826;6.740;2023-09-19T04:01:20;99857.68;;;15.20;60.75
74722;BME280;63470;49.826;6.740;2023-09-19T04:03:54;99858.00;;;15.27;60.69
74722;BME280;63470;49.826;6.740;2023-09-19T04:06:21;99853.01;;;15.36;60.52
74722;BME280;63470;49.826;6.740;2023-09-19T04:08:52;99845.73;;;15.42;60.39
74722;BME280;63470;49.826;6.740;2023-09-19T04:11:25;99844.30;;;15.43;60.37
74722;BME280;63470;49.826;6.740;2023-09-19T04:13:53;99847.09;;;15.39;60.36
74722;BME280;63470;49.826;6.740;2023-09-19T04:16:24;99847.70;;;15.32;60.43
74722;BME280;63470;49.826;6.740;2023-09-19T04:18:54;99851.69;;;15.24;60.53
74722;BME280;63470;49.826;6.740;2023-09-19T04:21:25;99855.45;;;15.20;60.61
74722;BME280;63470;49.826;6.740;2023-09-19T04:23:55;99851.76;;;15.17;60.62
74722;BME280;63470;49.826;6.740;2023-09-19T04:26:26;99856.10;;;15.14;60.64
74722;BME280;63470;49.826;6.740;2023-09-19T04:28:56;99854.86;;;15.13;60.57
74722;BME280;63470;49.826;6.740;2023-09-19T04:31:26;99849.37;;;15.12;60.51
74722;BME280;63470;49.826;6.740;2023-09-19T04:33:58;99857.08;;;15.08;60.52
74722;BME280;63470;49.826;6.740;2023-09-19T04:36:27;99859.98;;;15.05;60.57
74722;BME280;63470;49.826;6.740;2023-09-19T04:38:58;99868.49;;;15.01;60.66
74722;BME280;63470;49.826;6.740;2023-09-19T04:41:27;99871.81;;;15.01;60.65
74722;BME280;63470;49.826;6.740;2023-09-19T04:43:59;99873.55;;;14.99;60.63
74722;BME280;63470;49.826;6.740;2023-09-19T04:46:29;99880.09;;;14.98;60.61
74722;BME280;63470;49.826;6.740;2023-09-19T04:48:59;99877.38;;;14.95;60.61
74722;BME280;63470;49.826;6.740;2023-09-19T04:51:37;99883.98;;;14.92;60.65
74722;BME280;63470;49.826;6.740;2023-09-19T04:54:00;99889.58;;;14.91;60.66
74722;BME280;63470;49.826;6.740;2023-09-19T04:56:32;99899.44;;;14.88;60.71
74722;BME280;63470;49.826;6.740;2023-09-19T04:59:02;99901.43;;;14.86;60.71
74722;BME280;63470;49.826;6.740;2023-09-19T05:01:32;99898.84;;;14.86;60.69
74722;BME280;63470;49.826;6.740;2023-09-19T05:04:06;99898.42;;;14.87;60.69
74722;BME280;63470;49.826;6.740;2023-09-19T05:06:34;99905.99;;;14.88;60.66
74722;BME280;63470;49.826;6.740;2023-09-19T05:09:08;99910.73;;;14.90;60.60
74722;BME280;63470;49.826;6.740;2023-09-19T05:11:34;99909.81;;;14.90;60.64
74722;BME280;63470;49.826;6.740;2023-09-19T05:14:04;99907.83;;;14.90;60.65
74722;BME280;63470;49.826;6.740;2023-09-19T05:16:39;99912.98;;;14.90;60.64
74722;BME280;63470;49.826;6.740;2023-09-19T05:19:05;99914.98;;;14.92;60.61
74722;BME280;63470;49.826;6.740;2023-09-19T05:21:35;99912.98;;;14.94;60.54
74722;BME280;63470;49.826;6.740;2023-09-19T05:24:07;99922.91;;;14.97;60.50
74722;BME280;63470;49.826;6.740;2023-09-19T05:26:36;99911.49;;;14.98;60.50
74722;BME280;63470;49.826;6.740;2023-09-19T05:29:08;99913.16;;;15.00;60.46
74722;BME280;63470;49.826;6.740;2023-09-19T05:31:43;99916.02;;;15.01;60.43
74722;BME280;63470;49.826;6.740;2023-09-19T05:34:10;99909.77;;;15.02;60.45
74722;BME280;63470;49.826;6.740;2023-09-19T05:36:38;99915.69;;;15.03;60.47
74722;BME280;63470;49.826;6.740;2023-09-19T05:39:10;99917.42;;;15.06;60.47
74722;BME280;63470;49.826;6.740;2023-09-19T05:41:43;99908.53;;;15.08;60.43
74722;BME280;63470;49.826;6.740;2023-09-19T05:44:12;99912.12;;;15.07;60.50
74722;BME280;63470;49.826;6.740;2023-09-19T05:46:40;99917.52;;;15.08;60.54
74722;BME280;63470;49.826;6.740;2023-09-19T05:49:10;99918.70;;;15.09;60.56
74722;BME280;63470;49.826;6.740;2023-09-19T05:51:41;99920.11;;;15.11;60.51
74722;BME280;63470;49.826;6.740;2023-09-19T05:54:16;99926.57;;;15.14;60.46
74722;BME280;63470;49.826;6.740;2023-09-19T05:56:42;99934.12;;;15.17;60.41
74722;BME280;63470;49.826;6.740;2023-09-19T05:59:16;99943.35;;;15.19;60.36
74722;BME280;63470;49.826;6.740;2023-09-19T06:01:43;99950.93;;;15.20;60.35
74722;BME280;63470;49.826;6.740;2023-09-19T06:04:14;99958.20;;;15.23;60.36
74722;BME280;63470;49.826;6.740;2023-09-19T06:06:45;99964.98;;;15.26;60.36
74722;BME280;63470;49.826;6.740;2023-09-19T06:09:15;99961.78;;;15.27;60.35
74722;BME280;63470;49.826;6.740;2023-09-19T06:11:45;99962.12;;;15.29;60.39
74722;BME280;63470;49.826;6.740;2023-09-19T06:14:18;99973.17;;;15.31;60.40
74722;BME280;63470;49.826;6.740;2023-09-19T06:16:48;99974.91;;;15.34;60.34
74722;BME280;63470;49.826;6.740;2023-09-19T06:19:17;99977.30;;;15.37;60.32
74722;BME280;63470;49.826;6.740;2023-09-19T06:21:48;99981.41;;;15.40;60.29
74722;BME280;63470;49.826;6.740;2023-09-19T06:24:20;99985.27;;;15.44;60.25
74722;BME280;63470;49.826;6.740;2023-09-19T06:26:50;99986.11;;;15.47;60.21
74722;BME280;63470;49.826;6.740;2023-09-19T06:29:23;99993.16;;;15.50;60.19
74722;BME280;63470;49.826;6.740;2023-09-19T06:31:50;99998.16;;;15.54;60.16
74722;BME280;63470;49.826;6.740;2023-09-19T06:34:20;100003.14;;;15.57;60.16
74722;BME280;63470;49.826;6.740;2023-09-19T06:36:51;100010.56;;;15.60;60.15
74722;BME280;63470;49.826;6.740;2023-09-19T06:39:23;100004.55;;;15.63;60.15
74722;BME280;63470;49.826;6.740;2023-09-19T06:41:54;100011.80;;;15.67;60.18
74722;BME280;63470;49.826;6.740;2023-09-19T06:44:25;100014.31;;;15.72;60.16
74722;BME280;63470;49.826;6.740;2023-09-19T06:46:53;100012.80;;;15.79;60.14
74722;BME280;63470;49.826;6.740;2023-09-19T06:49:24;100011.58;;;15.86;60.10
74722;BME280;63470;49.826;6.740;2023-09-19T06:51:55;100019.91;;;15.92;60.08
74722;BME280;63470;49.826;6.740;2023-09-19T06:54:26;100021.64;;;15.98;60.07
74722;BME280;63470;49.826;6.740;2023-09-19T06:56:59;100029.47;;;16.04;59.99
74722;BME280;63470;49.826;6.740;2023-09-19T06:59:27;100033.38;;;16.12;60.00
74722;BME280;63470;49.826;6.740;2023-09-19T07:02:00;100040.20;;;16.20;60.03
74722;BME280;63470;49.826;6.740;2023-09-19T07:04:28;100035.42;;;16.27;59.97
74722;BME280;63470;49.826;6.740;2023-09-19T07:06:59;100040.58;;;16.33;59.95
74722;BME280;63470;49.826;6.740;2023-09-19T07:09:29;100049.16;;;16.40;59.94
74722;BME280;63470;49.826;6.740;2023-09-19T07:12:01;100051.20;;;16.48;59.89
74722;BME280;63470;49.826;6.740;2023-09-19T07:14:31;100048.41;;;16.55;59.89
74722;BME280;63470;49.826;6.740;2023-09-19T07:17:00;100053.12;;;16.63;59.84
74722;BME280;63470;49.826;6.740;2023-09-19T07:19:32;100053.45;;;16.71;59.84
74722;BME280;63470;49.826;6.740;2023-09-19T07:22:03;100058.64;;;16.82;59.89
74722;BME280;63470;49.826;6.740;2023-09-19T07:24:33;100060.80;;;16.93;59.80
74722;BME280;63470;49.826;6.740;2023-09-19T07:27:03;100065.44;;;17.01;59.82
74722;BME280;63470;49.826;6.740;2023-09-19T07:29:34;100063.47;;;17.08;59.79
74722;BME280;63470;49.826;6.740;2023-09-19T07:32:05;100062.90;;;17.11;59.77
74722;BME280;63470;49.826;6.740;2023-09-19T07:34:39;100061.17;;;17.15;59.81
74722;BME280;63470;49.826;6.740;2023-09-19T07:37:06;100064.56;;;17.21;59.81
74722;BME280;63470;49.826;6.740;2023-09-19T07:39:36;100068.78;;;17.27;59.79
74722;BME280;63470;49.826;6.740;2023-09-19T07:42:08;100063.68;;;17.32;59.80
74722;BME280;63470;49.826;6.740;2023-09-19T07:44:37;100066.33;;;17.40;59.80
74722;BME280;63470;49.826;6.740;2023-09-19T07:47:08;100075.95;;;17.47;59.88
74722;BME280;63470;49.826;6.740;2023-09-19T07:49:39;100070.49;;;17.58;59.87
74722;BME280;63470;49.826;6.740;2023-09-19T07:52:14;100071.50;;;17.74;59.80
74722;BME280;63470;49.826;6.740;2023-09-19T07:54:45;100073.20;;;17.89;59.72
74722;BME280;63470;49.826;6.740;2023-09-19T07:57:10;100075.17;;;18.03;59.62
74722;BME280;63470;49.826;6.740;2023-09-19T07:59:44;100071.49;;;18.18;59.52
74722;BME280;63470;49.826;6.740;2023-09-19T08:02:16;100075.02;;;18.30;59.44
74722;BME280;63470;49.826;6.740;2023-09-19T08:04:42;100077.44;;;18.43;59.35
74722;BME280;63470;49.826;6.740;2023-09-19T08:07:12;100080.50;;;18.58;59.32
74722;BME280;63470;49.826;6.740;2023-09-19T08:09:49;100077.75;;;18.76;59.24
74722;BME280;63470;49.826;6.740;2023-09-19T08:12:14;100076.47;;;18.95;59.19
74722;BME280;63470;49.826;6.740;2023-09-19T08:14:44;100083.26;;;19.17;58.96
74722;BME280;63470;49.826;6.740;2023-09-19T08:17:14;100077.27;;;19.35;58.79
74722;BME280;63470;49.826;6.740;2023-09-19T08:19:47;100080.80;;;19.41;58.80
74722;BME280;63470;49.826;6.740;2023-09-19T08:22:18;100081.38;;;19.48;58.79
74722;BME280;63470;49.826;6.740;2023-09-19T08:24:49;100080.80;;;19.85;58.59
74722;BME280;63470;49.826;6.740;2023-09-19T08:27:20;100072.91;;;20.21;58.29
74722;BME280;63470;49.826;6.740;2023-09-19T08:29:47;100080.73;;;20.43;58.19
74722;BME280;63470;49.826;6.740;2023-09-19T08:32:20;100079.22;;;20.64;58.07
74722;BME280;63470;49.826;6.740;2023-09-19T08:34:50;100086.56;;;20.69;58.24
74722;BME280;63470;49.826;6.740;2023-09-19T08:37:20;100084.70;;;20.64;58.38
74722;BME280;63470;49.826;6.740;2023-09-19T08:39:48;100077.70;;;20.66;58.39
74722;BME280;63470;49.826;6.740;2023-09-19T08:42:22;100096.16;;;20.24;58.96
74722;BME280;63470;49.826;6.740;2023-09-19T08:44:49;100094.84;;;20.22;58.98
74722;BME280;63470;49.826;6.740;2023-09-19T08:47:29;100096.66;;;19.89;59.45
74722;BME280;63470;49.826;6.740;2023-09-19T08:50:00;100102.84;;;19.56;59.55
74722;BME280;63470;49.826;6.740;2023-09-19T08:52:32;100103.39;;;19.05;60.12
74722;BME280;63470;49.826;6.740;2023-09-19T08:54:52;100102.16;;;18.88;60.17
74722;BME280;63470;49.826;6.740;2023-09-19T08:57:23;100104.83;;;18.65;60.34
74722;BME280;63470;49.826;6.740;2023-09-19T08:59:56;100104.88;;;18.59;60.35
74722;BME280;63470;49.826;6.740;2023-09-19T09:02:24;100101.65;;;18.70;60.24
74722;BME280;63470;49.826;6.740;2023-09-19T09:04:54;100096.52;;;18.58;60.25
74722;BME280;63470;49.826;6.740;2023-09-19T09:07:27;100099.13;;;18.46;60.32
74722;BME280;63470;49.826;6.740;2023-09-19T09:09:55;100104.07;;;18.57;60.08
74722;BME280;63470;49.826;6.740;2023-09-19T09:12:27;100104.91;;;18.67;59.91
74722;BME280;63470;49.826;6.740;2023-09-19T09:14:58;100099.19;;;18.71;59.86
74722;BME280;63470;49.826;6.740;2023-09-19T09:17:27;100103.30;;;18.80;59.74
74722;BME280;63470;49.826;6.740;2023-09-19T09:19:58;100107.62;;;19.15;59.53
74722;BME280;63470;49.826;6.740;2023-09-19T09:22:28;100104.20;;;19.47;59.25
74722;BME280;63470;49.826;6.740;2023-09-19T09:24:59;100099.34;;;19.71;58.99
74722;BME280;63470;49.826;6.740;2023-09-19T09:27:29;100101.83;;;19.82;58.69
74722;BME280;63470;49.826;6.740;2023-09-19T09:30:00;100100.50;;;19.92;58.80
74722;BME280;63470;49.826;6.740;2023-09-19T09:32:36;100104.27;;;20.17;58.53
74722;BME280;63470;49.826;6.740;2023-09-19T09:35:07;100093.33;;;20.60;58.27
74722;BME280;63470;49.826;6.740;2023-09-19T09:37:32;100095.91;;;20.93;58.15
74722;BME280;63470;49.826;6.740;2023-09-19T09:40:45;100093.00;;;21.38;57.86
74722;BME280;63470;49.826;6.740;2023-09-19T09:42:36;100092.28;;;22.17;57.32
74722;BME280;63470;49.826;6.740;2023-09-19T09:45:18;100086.34;;;22.99;56.63
74722;BME280;63470;49.826;6.740;2023-09-19T09:47:41;100094.75;;;23.60;56.04
74722;BME280;63470;49.826;6.740;2023-09-19T09:50:34;100096.18;;;23.81;55.88
74722;BME280;63470;49.826;6.740;2023-09-19T09:52:44;100090.22;;;24.16;55.73
74722;BME280;63470;49.826;6.740;2023-09-19T09:55:09;100082.80;;;24.87;55.16
74722;BME280;63470;49.826;6.740;2023-09-19T09:57:42;100080.22;;;25.04;55.15
74722;BME280;63470;49.826;6.740;2023-09-19T10:00:20;100079.97;;;24.38;55.75
74722;BME280;63470;49.826;6.740;2023-09-19T10:02:40;100078.13;;;24.60;55.61
74722;BME280;63470;49.826;6.740;2023-09-19T10:05:33;100075.72;;;25.17;55.24
74722;BME280;63470;49.826;6.740;2023-09-19T10:07:50;100070.05;;;25.21;55.23
74722;BME280;63470;49.826;6.740;2023-09-19T10:10:30;100068.53;;;25.63;54.95
74722;BME280;63470;49.826;6.740;2023-09-19T10:12:42;100060.92;;;26.01;54.66
74722;BME280;63470;49.826;6.740;2023-09-19T10:15:12;100058.47;;;26.43;54.27
74722;BME280;63470;49.826;6.740;2023-09-19T10:17:42;100061.80;;;26.00;54.74
74722;BME280;63470;49.826;6.740;2023-09-19T10:20:23;100066.34;;;24.75;56.23
74722;BME280;63470;49.826;6.740;2023-09-19T10:22:43;100058.62;;;24.90;55.93
74722;BME280;63470;49.826;6.740;2023-09-19T10:25:11;100064.41;;;24.18;56.78
74722;BME280;63470;49.826;6.740;2023-09-19T10:27:44;100060.62;;;24.04;56.83
74722;BME280;63470;49.826;6.740;2023-09-19T10:30:13;100064.64;;;24.34;56.69
74722;BME280;63470;49.826;6.740;2023-09-19T10:32:43;100059.11;;;24.63;56.49
74722;BME280;63470;49.826;6.740;2023-09-19T10:35:17;100053.69;;;25.00;56.08
74722;BME280;63470;49.826;6.740;2023-09-19T10:37:45;100050.46;;;24.72;56.33
74722;BME280;63470;49.826;6.740;2023-09-19T10:40:15;100045.26;;;25.04;55.94
74722;BME280;63470;49.826;6.740;2023-09-19T10:42:46;100036.43;;;25.38;55.78
74722;BME280;63470;49.826;6.740;2023-09-19T10:45:17;100037.28;;;25.41;55.78
74722;BME280;63470;49.826;6.740;2023-09-19T10:47:47;100031.05;;;26.05;55.26
74722;BME280;63470;49.826;6.740;2023-09-19T10:50:21;100029.89;;;26.19;55.15
74722;BME280;63470;49.826;6.740;2023-09-19T10:52:54;100039.25;;;25.60;55.68
74722;BME280;63470;49.826;6.740;2023-09-19T10:55:19;100037.27;;;25.63;55.61
74722;BME280;63470;49.826;6.740;2023-09-19T10:57:49;100037.98;;;24.81;56.55
74722;BME280;63470;49.826;6.740;2023-09-19T11:05:21;100039.33;;;25.16;56.24
74722;BME280;63470;49.826;6.740;2023-09-19T11:07:59;100032.61;;;25.69;55.88
74722;BME280;63470;49.826;6.740;2023-09-19T11:10:50;100035.75;;;25.70;55.81
74722;BME280;63470;49.826;6.740;2023-09-19T11:12:56;100037.05;;;25.45;55.88
74722;BME280;63470;49.826;6.740;2023-09-19T11:17:55;100039.58;;;25.38;55.85
74722;BME280;63470;49.826;6.740;2023-09-19T11:20:42;100039.12;;;26.07;55.35
74722;BME280;63470;49.826;6.740;2023-09-19T11:23:19;100038.56;;;26.05;55.50
74722;BME280;63470;49.826;6.740;2023-09-19T11:30:28;100021.05;;;26.53;55.09
74722;BME280;63470;49.826;6.740;2023-09-19T11:33:17;100027.84;;;26.35;55.50
74722;BME280;63470;49.826;6.740;2023-09-19T11:38:00;100012.97;;;26.60;55.09
74722;BME280;63470;49.826;6.740;2023-09-19T11:40:31;100013.86;;;26.79;55.08
74722;BME280;63470;49.826;6.740;2023-09-19T11:43:27;100016.02;;;26.19;55.77
74722;BME280;63470;49.826;6.740;2023-09-19T11:46:01;100005.64;;;25.98;55.86
74722;BME280;63470;49.826;6.740;2023-09-19T11:48:06;100016.97;;;26.21;55.60
74722;BME280;63470;49.826;6.740;2023-09-19T11:50:36;100008.58;;;25.78;56.08
74722;BME280;63470;49.826;6.740;2023-09-19T11:53:03;100009.70;;;25.26;56.74
74722;BME280;63470;49.826;6.740;2023-09-19T11:55:35;100002.11;;;25.67;56.22
74722;BME280;63470;49.826;6.740;2023-09-19T11:58:07;100004.58;;;25.69;56.25
74722;BME280;63470;49.826;6.740;2023-09-19T12:00:37;100011.22;;;25.25;56.52
74722;BME280;63470;49.826;6.740;2023-09-19T12:03:08;100000.59;;;24.85;56.90
74722;BME280;63470;49.826;6.740;2023-09-19T12:05:35;100001.02;;;24.68;56.90
74722;BME280;63470;49.826;6.740;2023-09-19T12:08:09;100005.94;;;25.14;56.25
74722;BME280;63470;49.826;6.740;2023-09-19T12:10:50;100006.75;;;25.81;55.40
74722;BME280;63470;49.826;6.740;2023-09-19T12:13:17;100002.11;;;25.67;55.53
74722;BME280;63470;49.826;6.740;2023-09-19T12:15:45;99994.31;;;25.84;55.22
74722;BME280;63470;49.826;6.740;2023-09-19T12:18:09;100001.69;;;26.04;55.03
74722;BME280;63470;49.826;6.740;2023-09-19T12:20:44;99993.19;;;26.52;54.47
74722;BME280;63470;49.826;6.740;2023-09-19T12:23:14;99997.38;;;26.92;54.01
74722;BME280;63470;49.826;6.740;2023-09-19T12:25:42;99999.80;;;27.26;53.71
74722;BME280;63470;49.826;6.740;2023-09-19T12:28:12;99996.05;;;27.34;53.65
74722;BME280;63470;49.826;6.740;2023-09-19T12:30:43;99994.42;;;27.47;53.66
74722;BME280;63470;49.826;6.740;2023-09-19T12:33:16;99990.97;;;27.46;53.63
74722;BME280;63470;49.826;6.740;2023-09-19T12:35:45;99982.66;;;26.50;54.85
74722;BME280;63470;49.826;6.740;2023-09-19T12:38:26;99988.52;;;26.12;55.21
74722;BME280;63470;49.826;6.740;2023-09-19T12:40:52;99986.02;;;25.86;55.38
74722;BME280;63470;49.826;6.740;2023-09-19T12:43:16;99990.45;;;25.97;55.15
74722;BME280;63470;49.826;6.740;2023-09-19T12:45:46;99989.45;;;26.16;54.76
74722;BME280;63470;49.826;6.740;2023-09-19T12:48:20;99989.00;;;25.93;55.03
74722;BME280;63470;49.826;6.740;2023-09-19T12:51:05;99982.41;;;25.86;55.36
74722;BME280;63470;49.826;6.740;2023-09-19T12:53:26;99991.18;;;24.95;56.55
74722;BME280;63470;49.826;6.740;2023-09-19T12:56:00;99984.98;;;25.23;55.87
74722;BME280;63470;49.826;6.740;2023-09-19T12:58:20;99982.25;;;25.59;55.09
74722;BME280;63470;49.826;6.740;2023-09-19T13:00:52;99982.50;;;25.87;54.57
74722;BME280;63470;49.826;6.740;2023-09-19T13:03:29;99981.14;;;25.64;55.00
74722;BME280;63470;49.826;6.740;2023-09-19T13:05:50;99977.29;;;25.43;55.15
74722;BME280;63470;49.826;6.740;2023-09-19T13:08:26;99964.25;;;25.44;54.71
74722;BME280;63470;49.826;6.740;2023-09-19T13:11:10;99971.19;;;25.18;54.71
74722;BME280;63470;49.826;6.740;2023-09-19T13:13:23;99967.23;;;24.85;55.07
74722;BME280;63470;49.826;6.740;2023-09-19T13:15:52;99969.04;;;24.53;55.51
74722;BME280;63470;49.826;6.740;2023-09-19T13:18:21;99966.86;;;24.32;55.75
74722;BME280;63470;49.826;6.740;2023-09-19T13:21:12;99960.13;;;24.41;55.44
74722;BME280;63470;49.826;6.740;2023-09-19T13:23:26;99971.09;;;24.25;55.70
74722;BME280;63470;49.826;6.740;2023-09-19T13:25:56;99967.31;;;23.82;56.24
74722;BME280;63470;49.826;6.740;2023-09-19T13:28:25;99968.73;;;23.29;56.77